Time;durP1;ratioP1;P1;durP2;ratioP2;P2;SDS_P1;SDS_P2;PMS_P1;PMS_P2;Temp;Humidity;BMP_temperature;BMP_pressure;BME280_temperature;BME280_humidity;BME280_pressure;Samples;Min_cycle;Max_cycle;Signal;HPM_P1;HPM_P2
2022/12/13 00:01:44;;;;;;;2.43;2.23;;;-6.80;99.90;-6.10;96248.00;;;;4935365;28;20420;-73
2022/12/13 00:04:34;;;;;;;2.20;1.20;;;-6.40;99.90;-5.70;96255.00;;;;4919667;29;20843;-73
2022/12/13 00:07:22;;;;;;;1.57;1.47;;;-5.90;99.90;-5.60;96266.00;;;;4931282;29;20448;-73
2022/12/13 00:10:11;;;;;;;1.40;1.30;;;-6.20;99.90;-6.20;96248.00;;;;4930871;29;20836;-72
2022/12/13 00:13:00;;;;;;;0.83;0.83;;;-6.40;99.90;-6.30;96256.00;;;;4940972;29;20436;-73
2022/12/13 00:15:56;;;;;;;1.20;1.20;;;-6.60;99.90;-6.50;96242.00;;;;4949853;29;20468;-73
2022/12/13 00:18:48;;;;;;;0.95;0.95;;;-6.60;99.90;-7.00;96247.00;;;;4940749;28;20436;-73
2022/12/13 00:21:38;;;;;;;1.40;1.30;;;-6.60;99.90;-6.40;96251.00;;;;4927913;28;20232;-72
2022/12/13 00:24:27;;;;;;;1.20;1.20;;;-6.90;99.90;-6.40;96242.00;;;;4949994;28;20455;-72
2022/12/13 00:27:16;;;;;;;1.20;1.20;;;-6.60;99.90;-6.10;96253.00;;;;4972612;28;20786;-72
2022/12/13 00:30:06;;;;;;;1.50;1.40;;;-6.80;99.90;-5.90;96256.00;;;;4940810;28;20436;-73
2022/12/13 00:32:55;;;;;;;4.07;1.60;;;-6.60;99.90;-6.20;96254.00;;;;4933511;28;20429;-73
2022/12/13 00:35:44;;;;;;;1.23;1.23;;;-6.70;99.90;-6.20;96252.00;;;;4934315;28;20224;-73
2022/12/13 00:38:35;;;;;;;0.90;0.90;;;-6.50;99.90;-6.80;96247.00;;;;4949454;29;20432;-72
2022/12/13 00:41:24;;;;;;;1.23;1.13;;;-6.60;99.90;-6.60;96239.00;;;;4993730;28;20424;-72
2022/12/13 00:44:14;;;;;;;2.08;1.63;;;-6.20;99.90;-6.50;96243.00;;;;4935696;28;20429;-72
2022/12/13 00:47:02;;;;;;;1.60;1.50;;;-7.00;99.90;-6.30;96255.00;;;;4929033;28;20213;-72
2022/12/13 00:49:51;;;;;;;1.38;1.33;;;-7.10;99.90;-6.70;96245.00;;;;4937647;28;20435;-72
2022/12/13 00:52:40;;;;;;;1.42;1.33;;;-6.70;99.90;-7.10;96239.00;;;;4949435;29;20209;-72
2022/12/13 00:55:30;;;;;;;1.30;1.30;;;-6.80;99.90;-6.60;96247.00;;;;4944945;28;20228;-72
2022/12/13 00:58:19;;;;;;;0.90;0.90;;;-7.30;99.90;-6.30;96246.00;;;;4934829;28;20204;-72
2022/12/13 01:01:10;;;;;;;1.70;1.60;;;-6.80;99.90;-6.70;96239.00;;;;4933511;28;20234;-72
2022/12/13 01:04:01;;;;;;;0.73;0.73;;;-6.90;99.90;-6.90;96250.00;;;;4933597;28;20276;-72
2022/12/13 01:06:50;;;;;;;1.50;1.40;;;-6.90;99.90;-6.50;96238.00;;;;4948934;29;20211;-73
2022/12/13 01:09:41;;;;;;;2.25;1.27;;;-6.90;99.90;-6.70;96246.00;;;;4929370;29;20429;-72
2022/12/13 01:12:31;;;;;;;1.58;1.48;;;-6.90;99.90;-7.00;96246.00;;;;4947141;29;20262;-73
2022/12/13 01:15:20;;;;;;;1.88;1.77;;;-7.10;99.90;-6.90;96253.00;;;;4949051;29;20602;-72
2022/12/13 01:18:09;;;;;;;1.67;1.25;;;-7.00;99.90;-7.00;96246.00;;;;4940642;28;20229;-72
2022/12/13 01:21:00;;;;;;;2.25;1.73;;;-7.10;99.90;-6.60;96243.00;;;;4941075;28;20559;-73
2022/12/13 01:23:49;;;;;;;1.35;1.33;;;-7.10;99.90;-6.40;96240.00;;;;4929914;28;20570;-72
2022/12/13 01:26:38;;;;;;;1.67;1.58;;;-7.00;99.90;-6.50;96239.00;;;;4988752;28;20201;-72
2022/12/13 01:29:28;;;;;;;0.93;0.80;;;-6.90;99.90;-6.90;96241.00;;;;4920674;28;20209;-72
2022/12/13 01:32:17;;;;;;;2.85;2.10;;;-6.90;99.90;-6.60;96241.00;;;;4934898;28;20200;-72
2022/12/13 01:35:07;;;;;;;1.60;1.50;;;-7.00;99.90;-6.90;96230.00;;;;4932120;29;20235;-72
2022/12/13 01:37:55;;;;;;;0.82;0.82;;;-7.00;99.90;-7.40;96238.00;;;;4931076;28;20472;-72
2022/12/13 01:40:46;;;;;;;1.40;1.30;;;-5.20;99.90;-7.80;96223.00;;;;4956655;28;20200;-71
2022/12/13 01:43:55;;;;;;;1.85;1.75;;;-7.30;99.90;-7.80;96237.00;;;;4923124;29;20233;-72
2022/12/13 01:46:45;;;;;;;1.50;1.17;;;-7.50;99.90;-7.50;96235.00;;;;4933873;28;20623;-73
2022/12/13 01:49:34;;;;;;;0.65;0.65;;;-7.50;99.90;-7.30;96248.00;;;;4936504;28;20215;-72
2022/12/13 01:52:23;;;;;;;1.65;1.55;;;-7.50;99.90;-7.70;96231.00;;;;4937494;28;20208;-72
2022/12/13 01:55:14;;;;;;;2.13;2.03;;;-7.50;99.90;-7.60;96238.00;;;;4935624;28;20602;-71
2022/12/13 01:58:05;;;;;;;1.63;1.52;;;-7.60;99.90;-7.40;96235.00;;;;4948835;28;20232;-72
2022/12/13 02:00:54;;;;;;;1.33;1.23;;;-6.90;99.90;-7.20;96247.00;;;;4945726;28;20576;-72
2022/12/13 02:03:45;;;;;;;0.80;0.80;;;-7.50;99.90;-7.20;96236.00;;;;4941251;28;20239;-72
2022/12/13 02:06:37;;;;;;;1.20;1.10;;;-7.40;99.90;-7.10;96232.00;;;;4969314;28;20208;-72
2022/12/13 02:09:27;;;;;;;2.47;1.20;;;-7.40;99.90;-6.90;96237.00;;;;4944055;29;20215;-72
2022/12/13 02:12:16;;;;;;;0.80;0.80;;;-7.30;99.90;-6.90;96236.00;;;;4932230;28;21053;-72
2022/12/13 02:15:10;;;;;;;1.42;1.35;;;-7.20;99.90;-6.70;96248.00;;;;4930596;28;20461;-72
2022/12/13 02:18:20;;;;;;;1.50;1.40;;;-7.20;99.90;-6.60;96245.00;;;;4929430;28;20240;-72
2022/12/13 02:21:19;;;;;;;0.70;0.70;;;-7.10;99.90;-6.80;96249.00;;;;4931508;28;20212;-72
2022/12/13 02:24:57;;;;;;;1.33;0.90;;;-7.20;99.90;-7.00;96231.00;;;;4946221;29;20451;-72
2022/12/13 02:28:16;;;;;;;0.73;0.73;;;-7.20;99.90;-6.80;96246.00;;;;4917233;29;20212;-72
2022/12/13 02:31:11;;;;;;;1.40;1.30;;;-7.20;99.90;-6.70;96235.00;;;;4952200;28;20425;-72
2022/12/13 02:34:05;;;;;;;1.03;1.03;;;-7.10;99.90;-6.60;96242.00;;;;4936311;28;20222;-72
2022/12/13 02:37:04;;;;;;;1.35;1.25;;;-7.50;99.90;-6.60;96233.00;;;;4939887;28;20848;-72
2022/12/13 02:40:00;;;;;;;1.33;1.10;;;-7.20;99.90;-7.40;96230.00;;;;4931716;28;20213;-73
2022/12/13 02:42:58;;;;;;;1.30;1.30;;;-7.10;99.90;-7.60;96223.00;;;;4929709;29;20527;-72
2022/12/13 02:45:49;;;;;;;1.00;1.00;;;-7.20;99.90;-7.70;96228.00;;;;4970226;28;20448;-72
2022/12/13 02:48:42;;;;;;;0.88;0.88;;;-7.40;99.90;-7.90;96228.00;;;;4955503;28;20428;-72
2022/12/13 02:51:32;;;;;;;1.15;1.15;;;-7.60;99.90;-8.00;96228.00;;;;4939524;28;20580;-72
2022/12/13 02:54:21;;;;;;;1.50;1.48;;;-7.70;99.90;-8.10;96217.00;;;;4938949;28;20232;-73
2022/12/13 02:57:34;;;;;;;0.80;0.80;;;-7.80;99.90;-7.80;96219.00;;;;4951279;29;20235;-72
2022/12/13 03:00:32;;;;;;;1.05;1.05;;;-7.80;99.90;-7.80;96217.00;;;;4949770;28;20394;-72
2022/12/13 03:03:33;;;;;;;0.77;0.77;;;-7.80;99.90;-7.60;96228.00;;;;4949022;28;20208;-73
2022/12/13 03:06:39;;;;;;;1.00;1.00;;;-8.00;99.90;-7.50;96220.00;;;;4938873;28;20590;-72
2022/12/13 03:09:44;;;;;;;1.65;1.63;;;-7.70;99.90;-7.50;96227.00;;;;4950749;29;20039;-72
2022/12/13 03:15:55;;;;;;;1.38;1.27;;;-7.60;99.90;-6.90;96219.00;;;;4958262;28;20279;-73
2022/12/13 03:18:45;;;;;;;1.60;1.50;;;-7.60;99.90;-6.80;96220.00;;;;4934333;28;20598;-73
2022/12/13 03:21:41;;;;;;;1.00;1.00;;;-7.30;99.90;-7.10;96219.00;;;;4938351;28;20587;-72
2022/12/13 03:24:34;;;;;;;1.30;1.30;;;-7.30;99.90;-7.70;96203.00;;;;4973636;28;20224;-72
2022/12/13 03:27:23;;;;;;;0.77;0.77;;;-7.40;99.90;-8.20;96207.00;;;;4998156;28;20220;-72
2022/12/13 03:30:13;;;;;;;0.60;0.60;;;-7.70;99.90;-8.10;96208.00;;;;4950802;28;20582;-72
2022/12/13 03:33:02;;;;;;;1.30;1.25;;;-7.90;99.90;-8.00;96207.00;;;;4973747;28;20204;-72
2022/12/13 03:35:51;;;;;;;1.15;1.15;;;-7.90;99.90;-8.30;96195.00;;;;4920899;28;21055;-72
2022/12/13 03:38:41;;;;;;;0.98;0.98;;;-8.00;99.90;-8.50;96188.00;;;;4943439;28;20228;-70
2022/12/13 03:41:31;;;;;;;1.33;1.33;;;-8.10;99.90;-8.20;96196.00;;;;4936111;28;20702;-72
2022/12/13 03:44:20;;;;;;;0.70;0.70;;;-8.30;99.90;-7.90;96189.00;;;;4932616;29;20228;-73
2022/12/13 03:47:08;;;;;;;2.35;1.02;;;-8.10;99.90;-7.90;96194.00;;;;4931622;29;20254;-72
2022/12/13 03:49:57;;;;;;;0.70;0.70;;;-8.00;99.90;-8.10;96186.00;;;;4937902;28;20602;-72
2022/12/13 03:52:46;;;;;;;1.98;1.90;;;-8.10;99.90;-8.50;96185.00;;;;4958679;28;20662;-71
2022/12/13 03:55:36;;;;;;;1.60;1.50;;;-8.10;99.90;-8.40;96204.00;;;;4945414;28;20220;-73
2022/12/13 03:58:25;;;;;;;1.50;1.50;;;-8.20;99.90;-8.20;96210.00;;;;4935148;28;20478;-72
2022/12/13 04:01:16;;;;;;;1.98;1.88;;;-8.10;99.90;-7.80;96199.00;;;;4934153;28;20585;-72
2022/12/13 04:04:05;;;;;;;1.85;1.75;;;-8.10;99.90;-7.70;96202.00;;;;4948112;28;20204;-72
2022/12/13 04:06:54;;;;;;;0.80;0.80;;;-8.00;99.90;-7.80;96221.00;;;;4980830;23;20235;-86
2022/12/13 04:09:42;;;;;;;2.72;1.85;;;-8.00;99.90;-7.80;96211.00;;;;4953872;28;20235;-86
2022/12/13 04:15:39;;;;;;;1.80;1.63;;;-7.90;99.90;-7.80;96220.00;;;;4955903;28;20215;-86
2022/12/13 04:18:28;;;;;;;5.00;3.55;;;-6.40;99.90;-7.60;96211.00;;;;4972681;28;20285;-86
2022/12/13 04:21:17;;;;;;;1.70;1.58;;;-7.90;99.90;-7.50;96228.00;;;;4964728;28;20204;-86
2022/12/13 04:24:06;;;;;;;1.98;1.88;;;-7.90;99.90;-7.40;96212.00;;;;4997202;28;20208;-85
2022/12/13 04:26:55;;;;;;;1.58;1.52;;;-7.70;99.90;-7.10;96228.00;;;;5025766;28;20212;-87
2022/12/13 04:29:45;;;;;;;3.03;2.88;;;-7.70;99.90;-7.10;96241.00;;;;4951945;28;20637;-87
2022/12/13 04:32:34;;;;;;;2.55;2.35;;;-7.70;99.90;-7.30;96233.00;;;;4957401;28;20212;-87
2022/12/13 04:35:23;;;;;;;1.73;1.63;;;-7.60;99.90;-7.80;96216.00;;;;4967025;28;20204;-85
2022/12/13 04:38:12;;;;;;;0.80;0.80;;;-7.70;99.90;-8.20;96215.00;;;;4974949;28;20246;-85
2022/12/13 04:41:09;;;;;;;0.95;0.95;;;-7.90;99.90;-8.30;96219.00;;;;4962428;28;20215;-85
2022/12/13 04:43:58;;;;;;;0.55;0.55;;;-8.10;99.90;-8.60;96206.00;;;;4964195;28;20640;-84
2022/12/13 04:46:48;;;;;;;1.48;1.48;;;-8.30;99.90;-8.60;96199.00;;;;4966182;28;20257;-84
2022/12/13 04:49:37;;;;;;;1.63;1.52;;;-6.90;99.90;-8.30;96202.00;;;;4975409;28;20227;-84
2022/12/13 04:52:26;;;;;;;1.05;0.98;;;-8.40;99.90;-8.30;96200.00;;;;4968191;28;20207;-85
2022/12/13 04:55:15;;;;;;;0.77;0.77;;;-7.20;99.90;-8.40;96206.00;;;;4962445;28;20199;-85
2022/12/13 04:58:04;;;;;;;1.52;1.42;;;-8.60;99.90;-8.20;96207.00;;;;4954114;28;20302;-86
2022/12/13 05:00:52;;;;;;;0.90;0.90;;;-8.50;99.90;-7.80;96212.00;;;;4958064;28;20209;-86
2022/12/13 05:03:43;;;;;;;1.23;1.23;;;-8.10;99.90;-7.70;96207.00;;;;4961981;28;20600;-85
2022/12/13 05:06:31;;;;;;;1.52;1.42;;;-8.00;99.90;-7.80;96211.00;;;;4963149;28;20216;-85
2022/12/13 05:09:20;;;;;;;1.45;1.35;;;-8.20;99.90;-7.90;96218.00;;;;4955768;28;20287;-86
2022/12/13 05:12:09;;;;;;;2.28;2.17;;;-8.20;99.90;-8.20;96203.00;;;;4981103;23;20242;-70
2022/12/13 05:14:57;;;;;;;2.03;1.92;;;-8.00;99.90;-8.30;96203.00;;;;4964879;28;20211;-68
2022/12/13 05:17:46;;;;;;;1.23;1.23;;;-8.50;99.90;-8.50;96193.00;;;;4948717;28;20261;-71
2022/12/13 05:20:37;;;;;;;1.50;1.40;;;-8.20;99.90;-8.40;96206.00;;;;4982553;28;20204;-70
2022/12/13 05:23:26;;;;;;;1.20;1.20;;;-8.50;99.90;-8.30;96206.00;;;;4954184;28;20212;-69
2022/12/13 05:26:15;;;;;;;2.28;1.60;;;-8.60;99.90;-8.10;96209.00;;;;4958166;28;20232;-69
2022/12/13 05:29:03;;;;;;;1.75;1.75;;;-8.20;99.90;-8.00;96199.00;;;;4951747;28;20204;-70
2022/12/13 05:31:52;;;;;;;1.40;1.40;;;-8.10;99.90;-7.90;96212.00;;;;4952314;28;20594;-69
2022/12/13 05:34:41;;;;;;;1.20;1.10;;;-8.20;99.90;-7.90;96210.00;;;;4972678;28;20199;-69
2022/12/13 05:37:31;;;;;;;2.08;1.02;;;-8.20;99.90;-8.00;96208.00;;;;4966779;28;20612;-69
2022/12/13 05:40:20;;;;;;;1.30;1.30;;;-8.60;99.90;-7.70;96204.00;;;;4982241;28;20596;-69
2022/12/13 05:43:10;;;;;;;2.15;1.10;;;-8.10;99.90;-7.50;96210.00;;;;4965858;28;20234;-68
2022/12/13 05:45:59;;;;;;;2.90;2.65;;;-8.00;99.90;-7.90;96205.00;;;;4958947;28;20228;-69
2022/12/13 05:48:48;;;;;;;2.40;1.90;;;-8.10;99.90;-8.30;96191.00;;;;4944783;28;20620;-69
2022/12/13 05:51:36;;;;;;;1.58;1.25;;;-8.10;99.90;-8.70;96188.00;;;;4953200;28;20258;-69
2022/12/13 05:54:27;;;;;;;1.55;1.45;;;-8.40;99.90;-8.50;96186.00;;;;4945557;28;20207;-69
2022/12/13 05:57:15;;;;;;;9.07;4.40;;;-8.40;99.90;-8.50;96195.00;;;;4946290;28;20211;-69
2022/12/13 06:00:08;;;;;;;3.85;2.70;;;-8.40;99.90;-8.70;96204.00;;;;4942403;28;20234;-68
2022/12/13 06:02:57;;;;;;;1.70;1.27;;;-8.70;99.90;-8.70;96191.00;;;;4943959;28;20216;-69
2022/12/13 06:05:46;;;;;;;1.10;1.10;;;-8.60;99.90;-8.70;96190.00;;;;4944693;28;20289;-70
2022/12/13 06:08:35;;;;;;;1.58;1.52;;;-8.40;99.90;-8.90;96188.00;;;;4943230;28;20205;-70
2022/12/13 06:11:25;;;;;;;4.30;4.10;;;-8.50;99.90;-8.70;96179.00;;;;4949462;28;20218;-69
2022/12/13 06:14:15;;;;;;;4.22;2.63;;;-8.60;99.90;-8.60;96183.00;;;;4952395;28;20572;-69
2022/12/13 06:17:04;;;;;;;4.75;2.42;;;-8.80;99.90;-8.80;96176.00;;;;5011489;28;20230;-69
2022/12/13 06:19:53;;;;;;;2.40;1.90;;;-8.50;99.90;-9.00;96181.00;;;;4939751;28;20232;-70
2022/12/13 06:22:42;;;;;;;5.93;3.70;;;-8.70;99.90;-9.20;96181.00;;;;4946426;28;20204;-70
2022/12/13 06:25:31;;;;;;;4.47;2.55;;;-8.70;99.90;-9.00;96189.00;;;;4945248;28;20277;-70
2022/12/13 06:28:21;;;;;;;3.33;2.25;;;-8.90;99.90;-9.00;96197.00;;;;4937708;28;20210;-68
2022/12/13 06:31:10;;;;;;;3.03;1.83;;;-8.60;99.90;-8.70;96198.00;;;;4953910;28;20200;-69
2022/12/13 06:34:02;;;;;;;5.03;4.35;;;-8.70;99.90;-8.30;96201.00;;;;4954507;28;20207;-70
2022/12/13 06:36:50;;;;;;;4.85;3.45;;;-8.70;99.90;-8.40;96194.00;;;;4947052;28;20220;-69
2022/12/13 06:39:40;;;;;;;2.80;2.60;;;-8.80;99.90;-8.50;96197.00;;;;4951419;28;20225;-71
2022/12/13 06:42:30;;;;;;;3.58;2.10;;;-8.50;99.90;-8.70;96199.00;;;;4958644;28;20208;-69
2022/12/13 06:45:20;;;;;;;1.33;1.33;;;-8.60;99.90;-8.90;96193.00;;;;4947363;28;20220;-71
2022/12/13 06:48:10;;;;;;;2.33;2.13;;;-8.70;99.90;-8.50;96187.00;;;;4941551;29;20556;-69
2022/12/13 06:51:02;;;;;;;2.05;1.88;;;-8.70;99.90;-8.20;96192.00;;;;4970065;28;20223;-69
2022/12/13 06:53:50;;;;;;;2.47;2.28;;;-8.60;99.90;-8.10;96196.00;;;;4957323;28;20216;-69
2022/12/13 06:56:39;;;;;;;2.28;2.08;;;-8.40;99.90;-8.30;96203.00;;;;4946075;28;20219;-70
2022/12/13 06:59:28;;;;;;;1.73;1.63;;;-8.70;99.90;-8.80;96191.00;;;;4946073;28;20232;-68
2022/12/13 07:02:18;;;;;;;1.55;1.45;;;-8.50;99.90;-9.00;96188.00;;;;4941958;28;20206;-71
2022/12/13 07:05:09;;;;;;;1.40;1.30;;;-8.80;99.90;-8.90;96191.00;;;;4951340;28;20232;-69
2022/12/13 07:07:57;;;;;;;1.45;1.45;;;-8.70;99.90;-8.80;96190.00;;;;4954328;28;21127;-70
2022/12/13 07:10:46;;;;;;;1.05;1.05;;;-8.80;99.90;-9.10;96183.00;;;;4955644;28;20703;-74
2022/12/13 07:13:35;;;;;;;0.95;0.95;;;-8.80;99.90;-9.30;96185.00;;;;4942733;29;20201;-69
2022/12/13 07:16:24;;;;;;;0.85;0.85;;;-8.80;99.90;-9.30;96201.00;;;;4944310;28;20610;-72
2022/12/13 07:19:14;;;;;;;1.33;1.23;;;-8.80;99.90;-9.10;96186.00;;;;4944167;29;20705;-70
2022/12/13 07:22:04;;;;;;;2.25;2.15;;;-9.00;99.90;-8.50;96202.00;;;;4950558;28;20215;-70
2022/12/13 07:24:53;;;;;;;1.30;1.20;;;-8.70;99.90;-8.50;96196.00;;;;4951231;28;20273;-70
2022/12/13 07:27:41;;;;;;;1.73;1.63;;;-8.70;99.90;-8.40;96199.00;;;;4951419;28;20205;-70
2022/12/13 07:30:32;;;;;;;2.70;2.35;;;-8.50;99.90;-8.50;96198.00;;;;4948630;28;20215;-74
2022/12/13 07:33:21;;;;;;;1.55;1.33;;;-8.40;99.90;-8.80;96204.00;;;;4945293;28;20275;-68
2022/12/13 07:36:14;;;;;;;1.83;1.73;;;-8.70;99.90;-8.70;96205.00;;;;4948674;28;20289;-73
2022/12/13 07:39:03;;;;;;;1.08;1.08;;;-8.50;99.90;-8.70;96208.00;;;;4944702;28;20243;-69
2022/12/13 07:41:55;;;;;;;1.63;1.52;;;-8.70;99.90;-8.30;96200.00;;;;4951418;28;20220;-71
2022/12/13 07:44:43;;;;;;;1.25;0.93;;;-8.50;99.90;-8.70;96195.00;;;;4964284;28;20219;-73
2022/12/13 07:47:32;;;;;;;3.00;2.70;;;-6.70;99.90;-8.50;96200.00;;;;4949802;28;20215;-73
2022/12/13 07:50:21;;;;;;;1.25;1.25;;;-8.50;99.90;-8.60;96197.00;;;;4947782;29;20207;-72
2022/12/13 07:53:12;;;;;;;2.53;2.42;;;-8.40;99.90;-8.10;96206.00;;;;4950845;28;20587;-70
2022/12/13 07:56:02;;;;;;;8.48;5.57;;;-8.30;99.90;-7.80;96197.00;;;;4943966;29;20231;-69
2022/12/13 07:58:51;;;;;;;2.15;2.05;;;-8.20;99.90;-7.60;96201.00;;;;4940774;28;20203;-69
2022/12/13 08:01:39;;;;;;;3.90;2.50;;;-8.30;99.90;-7.70;96203.00;;;;4944917;28;20213;-69
2022/12/13 08:04:28;;;;;;;0.88;0.88;;;-7.80;99.90;-8.00;96199.00;;;;4957435;28;20212;-73
2022/12/13 08:07:17;;;;;;;8.45;1.85;;;-8.10;99.90;-8.10;96211.00;;;;4950977;28;20200;-72
2022/12/13 08:10:08;;;;;;;2.60;2.45;;;-6.80;99.90;-8.40;96209.00;;;;4947869;28;20223;-71
2022/12/13 08:12:56;;;;;;;2.03;1.92;;;-8.20;99.90;-8.00;96218.00;;;;4951393;28;20695;-70
2022/12/13 08:15:45;;;;;;;0.65;0.65;;;-8.00;99.90;-7.90;96217.00;;;;4945740;28;20240;-70
2022/12/13 08:18:34;;;;;;;1.40;1.38;;;-7.80;99.90;-8.00;96219.00;;;;4948617;28;20200;-70
2022/12/13 08:21:23;;;;;;;0.60;0.60;;;-8.10;99.90;-7.90;96216.00;;;;4952622;28;20695;-71
2022/12/13 08:24:32;;;;;;;1.50;1.30;;;-8.10;99.90;-7.20;96223.00;;;;4953691;28;20676;-71
2022/12/13 08:27:22;;;;;;;1.25;1.25;;;-7.80;99.90;-7.30;96208.00;;;;4947056;28;20215;-70
2022/12/13 08:30:11;;;;;;;2.15;1.90;;;-7.80;99.90;-7.70;96207.00;;;;4944600;29;20200;-70
2022/12/13 08:33:01;;;;;;;2.42;2.22;;;-7.40;99.90;-6.90;96216.00;;;;4953332;28;20585;-70
2022/12/13 08:35:50;;;;;;;1.40;1.30;;;-7.40;99.90;-6.90;96206.00;;;;4979838;28;20231;-70
2022/12/13 08:38:39;;;;;;;1.70;1.60;;;-7.20;99.90;-6.50;96210.00;;;;4977685;28;20196;-69
2022/12/13 08:41:28;;;;;;;2.77;2.60;;;-7.10;99.90;-6.70;96205.00;;;;4946443;28;20463;-71
2022/12/13 08:44:19;;;;;;;4.53;3.60;;;-7.00;99.90;-6.50;96201.00;;;;4946348;28;20439;-71
2022/12/13 08:47:08;;;;;;;2.20;2.00;;;-6.90;99.90;-6.60;96209.00;;;;4953549;28;20451;-71
2022/12/13 08:49:59;;;;;;;3.33;3.03;;;-7.00;99.90;-6.30;96217.00;;;;4968017;28;20438;-67
2022/12/13 08:52:47;;;;;;;2.63;2.50;;;-6.80;99.90;-6.00;96219.00;;;;4967244;28;20473;-67
2022/12/13 08:55:37;;;;;;;4.57;3.77;;;-6.50;99.90;-6.00;96233.00;;;;4969708;28;20485;-67
2022/12/13 08:58:25;;;;;;;5.40;2.13;;;-6.50;99.90;-6.10;96232.00;;;;4966544;28;20430;-70
2022/12/13 09:01:16;;;;;;;4.37;3.83;;;-6.40;99.90;-5.60;96237.00;;;;4946406;28;20483;-76
2022/12/13 09:04:04;;;;;;;4.17;3.77;;;-6.20;99.90;-5.40;96239.00;;;;4946950;28;20431;-76
2022/12/13 09:06:53;;;;;;;3.80;2.83;;;-6.10;99.90;-5.20;96236.00;;;;4955018;28;20466;-76
2022/12/13 09:09:42;;;;;;;2.00;1.77;;;-5.90;99.90;-5.00;96238.00;;;;4945045;28;20416;-76
2022/12/13 09:12:30;;;;;;;3.70;3.23;;;-5.90;99.90;-4.70;96228.00;;;;4948657;28;20448;-73
2022/12/13 09:15:19;;;;;;;4.63;2.90;;;-5.70;99.90;-4.30;96235.00;;;;4951229;28;20459;-76
2022/12/13 09:18:10;;;;;;;3.93;3.63;;;-5.20;99.90;-4.40;96215.00;;;;4946601;28;20463;-76
2022/12/13 09:20:58;;;;;;;1.50;1.47;;;-5.40;99.90;-4.30;96222.00;;;;4947338;28;20479;-73
2022/12/13 09:23:47;;;;;;;2.40;2.20;;;-4.80;99.90;-4.40;96214.00;;;;4974781;28;20444;-76
2022/12/13 09:26:36;;;;;;;3.80;2.97;;;-4.90;99.90;-4.50;96209.00;;;;4942015;28;20467;-76
2022/12/13 09:29:25;;;;;;;2.87;2.63;;;-4.70;99.90;-4.40;96205.00;;;;4948244;28;20429;-75
2022/12/13 09:32:13;;;;;;;3.80;3.43;;;-4.70;99.90;-4.20;96202.00;;;;4943822;28;20468;-75
2022/12/13 09:35:04;;;;;;;2.40;2.20;;;-4.10;99.90;-4.10;96195.00;;;;4955580;28;20807;-73
2022/12/13 09:37:53;;;;;;;5.67;1.77;;;-4.60;99.90;-4.10;96194.00;;;;4944056;28;20958;-75
2022/12/13 09:40:46;;;;;;;4.57;2.93;;;-4.50;99.90;-3.70;96190.00;;;;4939969;28;20475;-75
2022/12/13 09:43:36;;;;;;;3.33;3.07;;;-4.80;99.90;-3.00;96203.00;;;;4947908;28;20429;-75
2022/12/13 09:46:30;;;;;;;2.77;2.50;;;-4.30;99.90;-2.50;96198.00;;;;4949602;28;20981;-78
2022/12/13 09:49:32;;;;;;;4.60;3.90;;;-3.90;99.90;-2.20;96196.00;;;;4968105;28;20428;-75
2022/12/13 09:52:25;;;;;;;4.27;3.13;;;-3.50;99.90;-1.80;96204.00;;;;4943643;28;20451;-75
2022/12/13 09:55:23;;;;;;;5.97;2.80;;;-3.20;99.90;-2.80;96186.00;;;;4943872;28;20452;-76
2022/12/13 09:58:18;;;;;;;2.83;2.63;;;-3.00;99.90;-3.00;96181.00;;;;4943166;28;20444;-75
2022/12/13 10:01:07;;;;;;;4.23;3.23;;;-3.10;99.90;-2.90;96171.00;;;;4941607;28;20542;-76
2022/12/13 10:04:00;;;;;;;3.43;2.07;;;-3.20;99.90;-2.70;96169.00;;;;4945019;29;20954;-75
2022/12/13 10:06:53;;;;;;;4.97;3.67;;;-3.20;99.90;-1.80;96172.00;;;;4990394;23;20508;-76
2022/12/13 10:09:43;;;;;;;3.03;2.30;;;-3.10;99.90;-1.60;96173.00;;;;4979817;28;20445;-76
2022/12/13 10:12:33;;;;;;;4.00;3.33;;;-2.80;99.90;-1.60;96170.00;;;;4980358;28;20442;-75
2022/12/13 10:15:23;;;;;;;1.60;1.43;;;-2.50;99.90;-2.10;96167.00;;;;4978306;28;20790;-75
2022/12/13 10:18:20;;;;;;;4.37;3.87;;;-2.40;99.90;-1.20;96175.00;;;;4963960;28;21160;-75
2022/12/13 10:21:13;;;;;;;3.53;3.23;;;-2.30;99.90;-0.80;96170.00;;;;4962019;28;20474;-75
2022/12/13 10:24:14;;;;;;;4.67;3.80;;;-0.60;99.90;-0.90;96162.00;;;;4960033;28;20825;-73
2022/12/13 10:27:16;;;;;;;7.33;4.40;;;0.20;99.20;-0.30;96160.00;;;;4958247;28;20468;-75
2022/12/13 10:30:10;;;;;;;4.77;3.70;;;0.80;97.40;0.20;96161.00;;;;4961324;28;20426;-76
2022/12/13 10:33:03;;;;;;;4.00;3.13;;;1.40;95.00;0.40;96157.00;;;;4952545;28;20440;-76
2022/12/13 10:36:28;;;;;;;4.53;3.67;;;1.80;92.80;0.80;96149.00;;;;4965881;28;20439;-74
2022/12/13 10:39:35;;;;;;;5.27;3.37;;;2.40;90.90;1.30;96163.00;;;;4961260;28;20439;-76
2022/12/13 10:42:26;;;;;;;6.50;4.63;;;2.80;88.10;0.70;96152.00;;;;4958393;28;20470;-76
2022/12/13 10:45:18;;;;;;;11.53;6.07;;;2.70;86.20;1.40;96146.00;;;;4959878;28;20439;-75
2022/12/13 10:48:18;;;;;;;12.93;6.27;;;3.10;86.70;2.50;96153.00;;;;4958326;28;20940;-73
2022/12/13 10:51:10;;;;;;;7.67;6.40;;;3.50;86.60;2.90;96156.00;;;;4954296;28;20435;-75
2022/12/13 10:54:00;;;;;;;4.23;3.43;;;4.40;81.70;2.40;96146.00;;;;4947824;28;20424;-73
2022/12/13 10:56:52;;;;;;;6.27;3.33;;;4.70;78.50;2.30;96133.00;;;;4964880;28;20447;-74
2022/12/13 10:59:44;;;;;;;5.03;3.30;;;5.20;76.10;2.80;96134.00;;;;4960912;28;20451;-74
2022/12/13 11:02:36;;;;;;;6.07;3.03;;;5.00;74.40;3.60;96137.00;;;;4959352;28;21005;-74
2022/12/13 11:05:28;;;;;;;4.60;2.90;;;5.40;74.20;3.10;96129.00;;;;4962330;28;20469;-74
2022/12/13 11:08:25;;;;;;;6.17;3.77;;;5.60;69.30;4.00;96132.00;;;;4953023;28;20214;-75
2022/12/13 11:11:17;;;;;;;6.57;2.67;;;5.80;67.30;3.90;96131.00;;;;4960825;28;20214;-76
2022/12/13 11:14:06;;;;;;;4.23;2.50;;;6.20;67.60;4.80;96119.00;;;;4973369;28;20207;-76
2022/12/13 11:16:59;;;;;;;4.37;3.80;;;6.40;65.90;5.30;96119.00;;;;4999811;28;20215;-76
2022/12/13 11:19:53;;;;;;;4.93;2.93;;;6.80;64.80;6.20;96129.00;;;;4979716;28;20276;-76
2022/12/13 11:22:42;;;;;;;6.20;2.67;;;7.40;63.20;5.80;96127.00;;;;4956055;28;20231;-76
2022/12/13 11:25:40;;;;;;;4.10;2.67;;;7.60;59.90;6.20;96128.00;;;;4964757;28;20204;-76
2022/12/13 11:29:06;;;;;;;3.47;2.27;;;7.90;58.70;6.60;96126.00;;;;4965345;28;20207;-76
2022/12/13 11:32:06;;;;;;;3.20;2.47;;;8.00;58.10;6.80;96120.00;;;;4962010;28;20695;-76
2022/12/13 11:35:05;;;;;;;3.40;2.80;;;8.10;57.80;7.30;96124.00;;;;4969008;28;20925;-76
2022/12/13 11:38:05;;;;;;;5.57;3.10;;;8.30;57.60;7.70;96132.00;;;;4955358;28;20683;-76
2022/12/13 11:40:59;;;;;;;6.40;2.57;;;8.70;56.80;7.70;96131.00;;;;4960383;28;20207;-77
2022/12/13 11:43:54;;;;;;;4.30;3.13;;;8.90;56.10;7.30;96110.00;;;;4969013;28;20200;-77
2022/12/13 11:46:46;;;;;;;8.47;3.90;;;9.10;54.60;7.40;96098.00;;;;4967741;28;20227;-76
2022/12/13 11:49:41;;;;;;;3.87;3.30;;;9.10;53.70;5.50;96087.00;;;;4964293;28;20625;-78
2022/12/13 11:52:36;;;;;;;3.00;2.40;;;8.40;53.20;5.90;96080.00;;;;4963330;28;20745;-76
2022/12/13 11:55:36;;;;;;;3.67;2.83;;;7.80;54.60;6.40;96088.00;;;;4956173;28;20595;-77
2022/12/13 11:58:33;;;;;;;4.33;3.30;;;7.60;54.40;5.90;96083.00;;;;4963750;28;20207;-77
2022/12/13 12:01:47;;;;;;;4.50;2.87;;;7.50;54.00;7.60;96098.00;;;;4992176;28;20200;-77
2022/12/13 12:04:45;;;;;;;3.73;2.80;;;7.60;55.60;7.80;96094.00;;;;4968271;28;20204;-77
2022/12/13 12:07:40;;;;;;;8.20;2.73;;;7.90;54.90;8.20;96093.00;;;;4967481;28;20231;-77
2022/12/13 12:10:42;;;;;;;3.80;2.90;;;8.10;54.90;8.40;96092.00;;;;4963124;28;20195;-77
2022/12/13 12:13:41;;;;;;;6.07;3.40;;;8.30;53.60;8.00;96075.00;;;;4969498;28;20197;-77
2022/12/13 12:16:38;;;;;;;6.13;3.00;;;8.50;52.40;8.00;96076.00;;;;4962997;28;20238;-78
2022/12/13 12:19:35;;;;;;;6.03;3.10;;;8.50;53.00;8.30;96086.00;;;;4969922;28;20218;-77
2022/12/13 12:22:38;;;;;;;4.43;3.20;;;8.60;53.40;8.70;96081.00;;;;4969173;28;20199;-77
2022/12/13 12:25:36;;;;;;;3.77;2.77;;;8.60;53.20;9.00;96075.00;;;;4977235;28;20137;-77
2022/12/13 12:28:38;;;;;;;3.80;3.03;;;8.80;52.60;9.40;96075.00;;;;4961224;28;20220;-76
2022/12/13 12:31:38;;;;;;;3.63;2.77;;;8.80;52.30;9.30;96069.00;;;;4961644;28;20227;-76
2022/12/13 12:34:38;;;;;;;4.30;3.37;;;8.90;51.80;8.90;96078.00;;;;5012257;28;20200;-76
2022/12/13 12:37:40;;;;;;;5.87;3.33;;;8.70;52.10;8.60;96066.00;;;;4959985;28;20230;-76
2022/12/13 12:41:08;;;;;;;6.57;4.40;;;8.50;51.90;6.10;96054.00;;;;4970678;28;20615;-76
2022/12/13 12:44:16;;;;;;;4.37;3.17;;;8.00;52.20;6.30;96047.00;;;;4966031;28;20742;-76
2022/12/13 12:47:20;;;;;;;6.53;3.03;;;7.30;53.20;8.20;96057.00;;;;4971794;28;20223;-76
2022/12/13 12:50:39;;;;;;;3.80;3.03;;;7.30;54.10;7.50;96057.00;;;;4970880;28;20265;-73
2022/12/13 12:53:42;;;;;;;6.47;3.43;;;7.40;53.10;7.80;96056.00;;;;4962195;28;20230;-78
2022/12/13 12:56:40;;;;;;;4.23;3.33;;;7.20;53.90;9.10;96066.00;;;;4963919;28;20223;-77